Stad Amsterdam — PECA — position and weather

sailwx.info

Track history (hours):
 
Tides and Currents Weather Stations Pressure Air Temp Water Temp Dewpoint Dewpoint Depression Visibility Wind Speed Wind Dir Waves Ship Positions

Stad Amsterdam (Netherlands)

Ship's website: http://www.stadamsterdam.com/content/home/index.xml

Last reported at 2018-Oct-20 12:11 UTC. Time now 2018-Nov-13 06:34 UTC.
Position N 41°06' E 001°33'.
Warning: this ship's position is 23 days out of date.

Length 76 m; beam 10 m.

Type: Sailing vessel. MMSI: 246494000.

Date/timePositionNaut miles runAvg speedWind from/ knotsBaromVisibWave heightAir tempDewpointWater temp
2018-Oct-20 12:11N 41°06' E 001°33'1 8.3
2018-Oct-20 12:03N 41°06' E 001°34'1 8.4
2018-Oct-20 11:59N 41°06' E 001°35'4 8.2
2018-Oct-20 11:28N 41°07' E 001°41'3 8.1
2018-Oct-20 11:04N 41°08' E 001°45'0 8.0
2018-Oct-20 11:00N 41°08' E 001°46'4 8.1
2018-Oct-20 10:30N 41°09' E 001°51'4 8.7
2018-Oct-20 10:03N 41°09' E 001°56'0 9.1
2018-Oct-20 10:00N 41°09' E 001°57'11 9.1
2018-Oct-20 08:47N 41°12' E 002°11'311.6
2018-Oct-20 08:29N 41°13' E 002°16'23310.1
2018-Oct-19 09:20N 43°11' E 006°46'310.2
2018-Oct-19 09:02N 43°14' E 006°49'010.2
2018-Oct-19 09:01N 43°14' E 006°49'510.0
2018-Oct-19 08:30N 43°18' E 006°53'4 9.5
2018-Oct-19 08:03N 43°22' E 006°56'0 9.3
2018-Oct-19 08:00N 43°22' E 006°56'5 9.2
2018-Oct-19 07:31N 43°26' E 006°59'4 8.8
2018-Oct-19 07:03N 43°30' E 007°00'0 8.9
2018-Oct-19 07:00N 43°30' E 007°00'2 4.7
2018-Oct-19 06:30N 43°32' E 007°02'0 0.0
2018-Oct-19 06:03N 43°32' E 007°02'0 0.0
2018-Oct-19 06:00N 43°32' E 007°02'0 0.0
2018-Oct-19 05:30N 43°32' E 007°02'0 0.0
2018-Oct-19 05:03N 43°32' E 007°02'0 0.0
2018-Oct-19 05:00N 43°32' E 007°02'0 0.0
2018-Oct-19 04:30N 43°32' E 007°02'0 0.0
2018-Oct-19 04:03N 43°32' E 007°02'0 0.0
2018-Oct-19 04:00N 43°32' E 007°02'0 0.0
2018-Oct-19 03:24N 43°32' E 007°02'0 0.0
2018-Oct-19 03:03N 43°32' E 007°02'0 0.0
2018-Oct-19 03:00N 43°32' E 007°02'0 0.0
2018-Oct-19 02:30N 43°32' E 007°02'0 0.0
2018-Oct-19 02:03N 43°32' E 007°02'0 0.0
2018-Oct-19 01:57N 43°32' E 007°02'0 0.0
2018-Oct-19 01:30N 43°32' E 007°02'0 0.0
2018-Oct-19 01:03N 43°32' E 007°02'0 0.0
2018-Oct-19 01:00N 43°32' E 007°02'0 0.0
2018-Oct-19 00:27N 43°32' E 007°02'0 0.0
2018-Oct-19 00:03N 43°32' E 007°02'0 0.0
2018-Oct-18 23:57N 43°32' E 007°02'0 0.0
2018-Oct-18 23:30N 43°32' E 007°02'0 0.0
2018-Oct-18 23:03N 43°32' E 007°02'0 0.0
2018-Oct-18 23:00N 43°32' E 007°02'0 0.0
2018-Oct-18 22:30N 43°32' E 007°02'0 0.0
2018-Oct-18 22:03N 43°32' E 007°02'0 0.0
2018-Oct-18 22:00N 43°32' E 007°02'0 0.0
2018-Oct-18 21:27N 43°32' E 007°02'0 0.0
2018-Oct-18 21:00N 43°32' E 007°02'0 0.0
2018-Oct-18 20:30N 43°32' E 007°02'0 0.0
2018-Oct-18 20:03N 43°32' E 007°02'0 0.0
2018-Oct-18 20:00N 43°32' E 007°02'0 0.0
2018-Oct-18 19:30N 43°32' E 007°02'0 0.0
2018-Oct-18 19:03N 43°32' E 007°02'0 0.0
2018-Oct-18 19:00N 43°32' E 007°02'0 0.0
2018-Oct-18 18:30N 43°32' E 007°02'0 0.0
2018-Oct-18 18:03N 43°32' E 007°02'0 0.1
2018-Oct-18 18:00N 43°32' E 007°02'0 0.0
2018-Oct-18 17:30N 43°32' E 007°02'0 0.0
2018-Oct-18 17:03N 43°32' E 007°02'0 0.0
2018-Oct-18 17:00N 43°32' E 007°02'0 0.0
2018-Oct-18 16:30N 43°32' E 007°02'0 0.0
2018-Oct-18 16:03N 43°32' E 007°02'0 0.0
2018-Oct-18 16:00N 43°32' E 007°02'0 0.0
2018-Oct-18 15:30N 43°32' E 007°02'0 0.0
2018-Oct-18 15:03N 43°32' E 007°02'0 0.0
2018-Oct-18 15:00N 43°32' E 007°02'0 0.0
2018-Oct-18 14:30N 43°32' E 007°02'0 0.0
2018-Oct-18 14:00N 43°32' E 007°02'0 0.0
2018-Oct-18 13:30N 43°32' E 007°02'0 0.0
2018-Oct-18 13:03N 43°32' E 007°02'0 0.0
2018-Oct-18 12:55N 43°32' E 007°02'1 2.8
2018-Oct-18 12:30N 43°31' E 007°01'2 4.4
2018-Oct-18 12:03N 43°30' E 007°02'0 6.6
2018-Oct-18 12:01N 43°29' E 007°03'4 7.4
2018-Oct-18 11:31N 43°26' E 007°04'2 3.5
2018-Oct-18 11:04N 43°26' E 007°07'0 8.0
2018-Oct-18 11:01N 43°26' E 007°07'4 7.9
2018-Oct-18 10:31N 43°29' E 007°10'3 7.1
2018-Oct-18 10:04N 43°32' E 007°13'0 6.6
2018-Oct-18 10:01N 43°32' E 007°13'3 5.7
2018-Oct-18 09:31N 43°34' E 007°15'2 4.6
2018-Oct-18 09:04N 43°36' E 007°17'0 4.6
2018-Oct-18 09:01N 43°36' E 007°17'3 5.6
2018-Oct-18 08:30N 43°39' E 007°17'3 6.0
2018-Oct-18 08:03N 43°42' E 007°17'0 0.6
2018-Oct-18 08:01N 43°42' E 007°17'0 0.0
2018-Oct-18 07:28N 43°42' E 007°17'0 0.0
2018-Oct-18 07:01N 43°42' E 007°17'0 0.0
2018-Oct-18 06:59N 43°42' E 007°17'0 0.0
2018-Oct-18 06:28N 43°42' E 007°17'0 0.0
2018-Oct-18 06:01N 43°42' E 007°17'0 0.0
2018-Oct-18 05:58N 43°42' E 007°17'0 0.0
2018-Oct-18 05:28N 43°42' E 007°17'0 0.0
2018-Oct-18 05:01N 43°42' E 007°17'0 0.0
2018-Oct-18 04:58N 43°42' E 007°17'0 0.0
2018-Oct-18 04:28N 43°42' E 007°17'0 0.0
2018-Oct-18 04:01N 43°42' E 007°17'0 0.0
2018-Oct-18 03:58N 43°42' E 007°17'0 0.0
2018-Oct-18 03:28N 43°42' E 007°17'0 0.0
2018-Oct-18 03:01N 43°42' E 007°17'0 0.0
2018-Oct-18 02:58N 43°42' E 007°17'0 0.0
2018-Oct-18 02:28N 43°42' E 007°17'0 0.0
2018-Oct-18 02:01N 43°42' E 007°17'0 0.0
2018-Oct-18 01:58N 43°42' E 007°17'0 0.0
2018-Oct-18 01:28N 43°42' E 007°17'0 0.0
2018-Oct-18 01:01N 43°42' E 007°17'0 0.0
2018-Oct-18 00:58N 43°42' E 007°17'0 0.0
2018-Oct-18 00:28N 43°42' E 007°17'0 0.0
2018-Oct-18 00:01N 43°42' E 007°17'0 0.0
2018-Oct-17 23:55N 43°42' E 007°17'0 0.0
2018-Oct-17 23:25N 43°42' E 007°17'0 0.0
2018-Oct-17 23:01N 43°42' E 007°17'0 0.0
2018-Oct-17 22:58N 43°42' E 007°17'0 0.0
2018-Oct-17 22:28N 43°42' E 007°17'0 0.0
2018-Oct-17 22:01N 43°42' E 007°17'0 0.0
2018-Oct-17 21:58N 43°42' E 007°17'0 0.0
2018-Oct-17 21:28N 43°42' E 007°17'0 0.0
2018-Oct-17 21:01N 43°42' E 007°17'0 0.0
2018-Oct-17 20:58N 43°42' E 007°17'0 0.0
2018-Oct-17 20:28N 43°42' E 007°17'0 0.0
2018-Oct-17 20:01N 43°42' E 007°17'0 0.0
2018-Oct-17 19:55N 43°42' E 007°17'0 0.0
2018-Oct-17 19:28N 43°42' E 007°17'0 0.0
2018-Oct-17 19:01N 43°42' E 007°17'0 0.0
2018-Oct-17 18:58N 43°42' E 007°17'0 0.0
2018-Oct-17 18:28N 43°42' E 007°17'0 0.0
2018-Oct-17 18:01N 43°42' E 007°17'0 0.0
2018-Oct-17 17:58N 43°42' E 007°17'0 0.0
2018-Oct-17 17:25N 43°42' E 007°17'0 0.0
2018-Oct-17 17:03N 43°42' E 007°17'0 0.9
2018-Oct-17 17:00N 43°42' E 007°17'2 3.8
2018-Oct-17 16:31N 43°40' E 007°15'0 0.8
2018-Oct-17 16:03N 43°40' E 007°15'0 2.4
2018-Oct-17 16:00N 43°40' E 007°15'2 3.3
2018-Oct-17 15:30N 43°38' E 007°14'2 4.4
2018-Oct-17 15:04N 43°36' E 007°13'0 5.2
2018-Oct-17 15:01N 43°36' E 007°13'5 5.5
2018-Oct-17 14:01N 43°32' E 007°09'3 5.8
2018-Oct-17 13:30N 43°30' E 007°05'2 5.1
2018-Oct-17 13:04N 43°30' E 007°02'0 6.6
2018-Oct-17 13:01N 43°30' E 007°02'1 1.2
2018-Oct-17 12:30N 43°31' E 007°02'0 0.0
2018-Oct-17 12:00N 43°31' E 007°02'0 0.0
2018-Oct-17 11:27N 43°31' E 007°02'0 0.0
2018-Oct-17 11:03N 43°31' E 007°02'0 0.1
2018-Oct-17 11:00N 43°31' E 007°02'0 0.0
2018-Oct-17 10:27N 43°31' E 007°02'0 0.0
2018-Oct-17 10:03N 43°31' E 007°02'0 0.0
2018-Oct-17 09:57N 43°31' E 007°02'0 0.0
2018-Oct-17 09:27N 43°31' E 007°02'0 0.0
2018-Oct-17 09:00N 43°31' E 007°02'0 0.0
2018-Oct-17 08:27N 43°31' E 007°02'0 0.0
2018-Oct-17 07:57N 43°31' E 007°02'2 3.6
2018-Oct-17 07:30N 43°32' E 007°02'0 0.4
2018-Oct-17 07:01N 43°32' E 007°02'0 0.0
2018-Oct-17 06:58N 43°32' E 007°02'0 0.0
2018-Oct-17 06:22N 43°32' E 007°02'0 0.0
2018-Oct-17 05:55N 43°32' E 007°02'0 0.0
2018-Oct-17 05:25N 43°32' E 007°02'0 0.0
2018-Oct-17 04:55N 43°32' E 007°02'0 0.0
2018-Oct-17 04:25N 43°32' E 007°02'0 0.0
2018-Oct-17 03:58N 43°32' E 007°02'0 0.0
2018-Oct-17 03:28N 43°32' E 007°02'0 0.0
2018-Oct-17 02:58N 43°32' E 007°02'0 0.0
2018-Oct-17 02:25N 43°32' E 007°02'0 0.0
2018-Oct-17 01:58N 43°32' E 007°02'0 0.0
2018-Oct-17 01:28N 43°32' E 007°02'0 0.0
2018-Oct-17 00:58N 43°32' E 007°02'0 0.0
2018-Oct-17 00:28N 43°32' E 007°02'0 0.0
2018-Oct-16 23:58N 43°32' E 007°02'0 0.0
2018-Oct-16 23:28N 43°32' E 007°02'0 0.0
2018-Oct-16 23:01N 43°32' E 007°02'0 0.0
2018-Oct-16 22:58N 43°32' E 007°02'0 0.0
2018-Oct-16 22:16N 43°32' E 007°02'0 0.0
2018-Oct-16 22:01N 43°32' E 007°02'0 0.0
2018-Oct-16 21:58N 43°32' E 007°02'0 0.0
2018-Oct-16 21:28N 43°32' E 007°02'0 0.0
2018-Oct-16 21:01N 43°32' E 007°02'0 0.0
2018-Oct-16 20:58N 43°32' E 007°02'0 0.0
2018-Oct-16 20:28N 43°32' E 007°02'0 0.0
2018-Oct-16 20:01N 43°32' E 007°02'0 0.0
2018-Oct-16 19:49N 43°32' E 007°02'0 0.0
2018-Oct-16 19:22N 43°32' E 007°02'0 0.0
2018-Oct-16 19:01N 43°32' E 007°02'0 0.0
2018-Oct-16 18:49N 43°32' E 007°02'0 0.0
2018-Oct-16 18:28N 43°32' E 007°02'0 0.0
2018-Oct-16 18:01N 43°32' E 007°02'0 0.0
2018-Oct-16 17:49N 43°32' E 007°02'0 0.0
2018-Oct-16 17:28N 43°32' E 007°02'0 0.0
2018-Oct-16 17:01N 43°32' E 007°02'0 0.0
2018-Oct-16 16:52N 43°32' E 007°02'0 0.0
2018-Oct-16 16:22N 43°32' E 007°02'0 0.0
2018-Oct-16 16:01N 43°32' E 007°02'0 0.0
2018-Oct-16 15:52N 43°32' E 007°02'0 0.0
2018-Oct-16 15:22N 43°32' E 007°02'0 0.0
2018-Oct-16 14:52N 43°32' E 007°02'0 0.0
2018-Oct-16 14:25N 43°32' E 007°02'0 0.0
2018-Oct-16 13:55N 43°32' E 007°02'0 0.0
2018-Oct-16 13:28N 43°32' E 007°02'0 0.0
2018-Oct-16 12:55N 43°32' E 007°02'0 0.0
2018-Oct-16 12:28N 43°32' E 007°02'0 0.0
2018-Oct-16 11:58N 43°32' E 007°02'0 0.0
2018-Oct-16 11:28N 43°32' E 007°02'0 0.0
2018-Oct-16 10:58N 43°32' E 007°02'0 0.0
2018-Oct-16 10:28N 43°32' E 007°02'0 0.0
2018-Oct-16 10:01N 43°32' E 007°02'0 0.0
2018-Oct-16 09:58N 43°32' E 007°02'0 0.0
2018-Oct-16 09:28N 43°32' E 007°02'0 0.0
2018-Oct-16 09:01N 43°32' E 007°02'0 0.0
2018-Oct-16 08:58N 43°32' E 007°02'0 0.0
2018-Oct-16 08:28N 43°32' E 007°02'0 0.0
2018-Oct-16 08:01N 43°32' E 007°02'0 0.0
2018-Oct-16 07:58N 43°32' E 007°02'0 0.0
2018-Oct-16 07:28N 43°32' E 007°02'0 0.0
2018-Oct-16 07:01N 43°32' E 007°02'0 0.0
2018-Oct-16 06:58N 43°32' E 007°02'0 0.0
2018-Oct-16 06:28N 43°32' E 007°02'0 0.0
2018-Oct-16 06:01N 43°32' E 007°02'0 0.0
2018-Oct-16 05:58N 43°32' E 007°02'0 0.0
2018-Oct-16 05:28N 43°32' E 007°02'0 0.0
2018-Oct-16 05:01N 43°32' E 007°02'0 0.0
2018-Oct-16 04:49N 43°32' E 007°02'0 0.0
2018-Oct-16 04:25N 43°32' E 007°02'0 0.0
2018-Oct-16 04:01N 43°32' E 007°02'0 0.0
2018-Oct-16 03:58N 43°32' E 007°02'0 0.0
2018-Oct-16 03:28N 43°32' E 007°02'0 0.0
2018-Oct-16 03:01N 43°32' E 007°02'0 0.0
2018-Oct-16 02:52N 43°32' E 007°02'0 0.0
2018-Oct-16 02:28N 43°32' E 007°02'0 0.0
2018-Oct-16 02:01N 43°32' E 007°02'0 0.0
2018-Oct-16 01:52N 43°32' E 007°02'0 0.0
2018-Oct-16 01:25N 43°32' E 007°02'0 0.0
2018-Oct-16 00:52N 43°32' E 007°02'0 0.0
2018-Oct-16 00:25N 43°32' E 007°02'0 0.0
2018-Oct-15 23:58N 43°32' E 007°02'0 0.0
2018-Oct-15 23:28N 43°32' E 007°02'0 0.0
2018-Oct-15 23:01N 43°32' E 007°02'0 0.0
2018-Oct-15 22:49N 43°32' E 007°02'0 0.0
2018-Oct-15 22:28N 43°32' E 007°02'0 0.0
2018-Oct-15 21:52N 43°32' E 007°02'0 0.0
2018-Oct-15 21:28N 43°32' E 007°02'0 0.0
2018-Oct-15 20:58N 43°32' E 007°02'0 0.0
2018-Oct-15 20:28N 43°32' E 007°02'0 0.0
2018-Oct-15 19:58N 43°32' E 007°02'0 0.0
2018-Oct-15 19:28N 43°32' E 007°02'0 0.0
2018-Oct-15 19:01N 43°32' E 007°02'0 0.0
2018-Oct-15 18:55N 43°32' E 007°02'0 0.0
2018-Oct-15 18:28N 43°32' E 007°02'0 0.0
2018-Oct-15 18:01N 43°32' E 007°02'0 0.0
2018-Oct-15 17:58N 43°32' E 007°02'0 0.0
2018-Oct-15 17:28N 43°32' E 007°02'0 0.0
2018-Oct-15 17:03N 43°32' E 007°02'0 0.1
2018-Oct-15 17:00N 43°32' E 007°02'2 3.1
2018-Oct-15 16:30N 43°31' E 007°01'0 0.8
2018-Oct-15 16:03N 43°31' E 007°01'0 0.9
2018-Oct-15 16:00N 43°31' E 007°02'1 2.8
2018-Oct-15 15:31N 43°29' E 007°02'3 6.2
2018-Oct-15 15:03N 43°27' E 006°60'0 6.7
2018-Oct-15 15:01N 43°27' E 006°59'3 6.1
2018-Oct-15 14:28N 43°24' E 006°57'3 5.6
2018-Oct-15 14:00N 43°22' E 006°55'69 3.2
2018-Oct-14 16:29N 43°18' E 005°21'1 0.2
2018-Oct-14 13:01N 43°18' E 005°22'0 1.3
2018-Oct-14 12:55N 43°18' E 005°21'1 0.2
2018-Oct-14 09:07N 43°18' E 005°20'0 5.3
2018-Oct-14 09:03N 43°18' E 005°21'0 5.0
2018-Oct-14 09:00N 43°18' E 005°21'1 0.0
2018-Oct-12 13:57N 43°18' E 005°22'27 3.7
2018-Oct-12 06:49N 43°06' E 005°55'1 3.7
2018-Oct-12 06:29N 43°06' E 005°53'0 0.0
2018-Oct-12 06:02N 43°06' E 005°53'0 0.0
2018-Oct-12 05:59N 43°06' E 005°53'0 0.0
2018-Oct-12 05:29N 43°06' E 005°53'0 0.0
2018-Oct-12 05:02N 43°06' E 005°53'0 0.1
2018-Oct-12 04:59N 43°06' E 005°53'0 0.0
2018-Oct-12 04:29N 43°06' E 005°53'0 0.0
2018-Oct-12 04:02N 43°06' E 005°53'0 0.0
2018-Oct-12 03:59N 43°06' E 005°53'0 0.0
2018-Oct-12 03:29N 43°06' E 005°53'0 0.0
2018-Oct-12 03:02N 43°06' E 005°53'0 0.1
2018-Oct-12 02:59N 43°06' E 005°53'0 0.0
2018-Oct-12 02:29N 43°06' E 005°53'0 0.0
2018-Oct-12 02:02N 43°06' E 005°53'0 0.0
2018-Oct-12 01:59N 43°06' E 005°53'0 0.0
2018-Oct-12 01:29N 43°06' E 005°53'0 0.0
2018-Oct-12 01:02N 43°06' E 005°53'0 0.0
2018-Oct-12 00:59N 43°06' E 005°53'0 0.0
2018-Oct-12 00:26N 43°06' E 005°53'0 0.0
2018-Oct-12 00:02N 43°06' E 005°53'0 0.0
2018-Oct-11 23:59N 43°06' E 005°53'0 0.0
2018-Oct-11 23:29N 43°06' E 005°53'0 0.0
2018-Oct-11 23:02N 43°06' E 005°53'0 0.0
2018-Oct-11 22:59N 43°06' E 005°53'0 0.0
2018-Oct-11 22:29N 43°06' E 005°53'0 0.0
2018-Oct-11 22:02N 43°06' E 005°53'0 0.0
2018-Oct-11 21:59N 43°06' E 005°53'0 0.0
2018-Oct-11 21:29N 43°06' E 005°53'0 0.0
2018-Oct-11 21:02N 43°06' E 005°53'0 0.0
2018-Oct-11 20:59N 43°06' E 005°53'0 0.0
2018-Oct-11 20:29N 43°06' E 005°53'0 0.0
2018-Oct-11 20:02N 43°06' E 005°53'0 0.0
2018-Oct-11 19:59N 43°06' E 005°53'0 0.0
2018-Oct-11 19:29N 43°06' E 005°53'0 0.0
2018-Oct-11 19:02N 43°06' E 005°53'0 0.0
2018-Oct-11 18:59N 43°06' E 005°53'0 0.0
2018-Oct-11 18:29N 43°06' E 005°53'0 0.0
2018-Oct-11 18:02N 43°06' E 005°53'0 0.0
2018-Oct-11 17:59N 43°06' E 005°53'0 0.0
2018-Oct-11 17:29N 43°06' E 005°53'0 0.0
2018-Oct-11 17:02N 43°06' E 005°53'0 0.0
2018-Oct-11 16:59N 43°06' E 005°53'0 0.0
2018-Oct-11 16:26N 43°06' E 005°53'0 0.0
2018-Oct-11 16:02N 43°06' E 005°53'0 0.0
2018-Oct-11 15:59N 43°06' E 005°53'0 0.0
2018-Oct-11 15:29N 43°06' E 005°53'0 0.0
2018-Oct-11 15:02N 43°06' E 005°53'0 0.0
2018-Oct-11 14:59N 43°06' E 005°53'0 0.0
2018-Oct-11 14:29N 43°06' E 005°53'0 0.0
2018-Oct-11 13:29N 43°06' E 005°53'0 0.0
2018-Oct-11 13:02N 43°06' E 005°53'0 0.0
2018-Oct-11 12:59N 43°06' E 005°53'0 0.0
2018-Oct-11 12:29N 43°06' E 005°53'0 0.0
2018-Oct-11 12:02N 43°06' E 005°53'0 0.0
2018-Oct-11 11:59N 43°06' E 005°53'0 0.0
2018-Oct-11 11:29N 43°06' E 005°53'0 0.0
2018-Oct-11 11:02N 43°06' E 005°53'0 0.0
2018-Oct-11 10:59N 43°06' E 005°53'0 0.0
2018-Oct-11 10:29N 43°06' E 005°53'0 0.0
2018-Oct-11 10:02N 43°06' E 005°53'0 0.0
2018-Oct-11 09:59N 43°06' E 005°53'0 0.0
2018-Oct-11 09:29N 43°06' E 005°53'0 0.0
2018-Oct-11 09:02N 43°06' E 005°53'0 0.0
2018-Oct-11 08:59N 43°06' E 005°53'0 0.0
2018-Oct-11 08:29N 43°06' E 005°53'0 0.0
2018-Oct-11 08:02N 43°06' E 005°53'0 0.0
2018-Oct-11 07:59N 43°06' E 005°53'0 0.0
2018-Oct-11 07:29N 43°06' E 005°53'0 0.0
2018-Oct-11 07:02N 43°06' E 005°53'0 0.0
2018-Oct-11 06:59N 43°06' E 005°53'0 0.0
2018-Oct-11 06:29N 43°06' E 005°53'0 0.0
2018-Oct-11 06:02N 43°06' E 005°53'0 0.0
2018-Oct-11 05:59N 43°06' E 005°53'0 0.0
2018-Oct-11 05:29N 43°06' E 005°53'0 0.0
2018-Oct-11 05:02N 43°06' E 005°53'0 0.0
2018-Oct-11 04:59N 43°06' E 005°53'0 0.0
2018-Oct-11 04:29N 43°06' E 005°53'0 0.0
2018-Oct-11 04:02N 43°06' E 005°53'0 0.0
2018-Oct-11 03:59N 43°06' E 005°53'0 0.0
2018-Oct-11 03:29N 43°06' E 005°53'0 0.0
2018-Oct-11 03:02N 43°06' E 005°53'0 0.1
2018-Oct-11 02:59N 43°06' E 005°53'0 0.0
2018-Oct-11 02:29N 43°06' E 005°53'0 0.0
2018-Oct-11 02:02N 43°06' E 005°53'0 0.0
2018-Oct-11 01:59N 43°06' E 005°53'0 0.0
2018-Oct-11 01:29N 43°06' E 005°53'0 0.0
2018-Oct-11 01:02N 43°06' E 005°53'0 0.0
2018-Oct-11 00:59N 43°06' E 005°53'0 0.0
2018-Oct-11 00:29N 43°06' E 005°53'0 0.0
2018-Oct-11 00:02N 43°06' E 005°53'0 0.0
2018-Oct-10 23:59N 43°06' E 005°53'0 0.0
2018-Oct-10 23:29N 43°06' E 005°53'0 0.0
2018-Oct-10 23:02N 43°06' E 005°53'0 0.0
2018-Oct-10 22:59N 43°06' E 005°53'0 0.0
2018-Oct-10 22:29N 43°06' E 005°53'0 0.0
2018-Oct-10 22:02N 43°06' E 005°53'0 0.0
2018-Oct-10 21:59N 43°06' E 005°53'0 0.0
2018-Oct-10 21:29N 43°06' E 005°53'0 0.0
2018-Oct-10 21:02N 43°06' E 005°53'0 0.0
2018-Oct-10 20:59N 43°06' E 005°53'0 0.0
2018-Oct-10 20:29N 43°06' E 005°53'0 0.0
2018-Oct-10 20:02N 43°06' E 005°53'0 0.0
2018-Oct-10 19:59N 43°06' E 005°53'0 0.0
2018-Oct-10 19:29N 43°06' E 005°53'0 0.0
2018-Oct-10 19:02N 43°06' E 005°53'0 0.0
2018-Oct-10 18:59N 43°06' E 005°53'0 0.0
2018-Oct-10 18:29N 43°06' E 005°53'0 0.0
2018-Oct-10 18:02N 43°06' E 005°53'0 0.0
2018-Oct-10 17:59N 43°06' E 005°53'0 0.0
2018-Oct-10 17:29N 43°06' E 005°53'0 0.0
2018-Oct-10 17:02N 43°06' E 005°53'0 0.0
2018-Oct-10 16:59N 43°06' E 005°53'0 0.0
2018-Oct-10 16:29N 43°06' E 005°53'0 0.0
2018-Oct-10 16:02N 43°06' E 005°53'0 0.1
2018-Oct-10 15:59N 43°06' E 005°53'0 0.0
2018-Oct-10 15:29N 43°06' E 005°53'0 0.0
2018-Oct-10 15:02N 43°06' E 005°53'0 0.0
2018-Oct-10 14:59N 43°06' E 005°53'0 0.0
2018-Oct-10 14:29N 43°06' E 005°53'0 0.0
2018-Oct-10 13:59N 43°06' E 005°53'0 0.0
2018-Oct-10 13:29N 43°06' E 005°53'0 0.0
2018-Oct-10 13:02N 43°06' E 005°53'0 0.0
2018-Oct-10 12:59N 43°06' E 005°53'0 0.0
2018-Oct-10 12:29N 43°06' E 005°53'  
Track history (hours):
 
Tides and Currents Weather Stations Pressure Air Temp Water Temp Dewpoint Dewpoint Depression Visibility Wind Speed Wind Dir Waves Ship Positions

Stad Amsterdam (Netherlands)

Ship's website: http://www.stadamsterdam.com/content/home/index.xml

Last reported at 2018-Oct-20 12:11 UTC. Time now 2018-Nov-13 06:34 UTC.
Position N 41°06' E 001°33'.
Warning: this ship's position is 23 days out of date.

Length 76 m; beam 10 m.

Type: Sailing vessel. MMSI: 246494000.

Date/timePositionNaut miles runAvg speedWind from/ knotsBaromVisibWave heightAir tempDewpointWater temp
2018-Oct-20 12:11N 41°06' E 001°33'1 8.3
2018-Oct-20 12:03N 41°06' E 001°34'1 8.4
2018-Oct-20 11:59N 41°06' E 001°35'4 8.2
2018-Oct-20 11:28N 41°07' E 001°41'3 8.1
2018-Oct-20 11:04N 41°08' E 001°45'0 8.0
2018-Oct-20 11:00N 41°08' E 001°46'4 8.1
2018-Oct-20 10:30N 41°09' E 001°51'4 8.7
2018-Oct-20 10:03N 41°09' E 001°56'0 9.1
2018-Oct-20 10:00N 41°09' E 001°57'11 9.1
2018-Oct-20 08:47N 41°12' E 002°11'311.6
2018-Oct-20 08:29N 41°13' E 002°16'23310.1
2018-Oct-19 09:20N 43°11' E 006°46'310.2
2018-Oct-19 09:02N 43°14' E 006°49'010.2
2018-Oct-19 09:01N 43°14' E 006°49'510.0
2018-Oct-19 08:30N 43°18' E 006°53'4 9.5
2018-Oct-19 08:03N 43°22' E 006°56'0 9.3
2018-Oct-19 08:00N 43°22' E 006°56'5 9.2
2018-Oct-19 07:31N 43°26' E 006°59'4 8.8
2018-Oct-19 07:03N 43°30' E 007°00'0 8.9
2018-Oct-19 07:00N 43°30' E 007°00'2 4.7
2018-Oct-19 06:30N 43°32' E 007°02'0 0.0
2018-Oct-19 06:03N 43°32' E 007°02'0 0.0
2018-Oct-19 06:00N 43°32' E 007°02'0 0.0
2018-Oct-19 05:30N 43°32' E 007°02'0 0.0
2018-Oct-19 05:03N 43°32' E 007°02'0 0.0
2018-Oct-19 05:00N 43°32' E 007°02'0 0.0
2018-Oct-19 04:30N 43°32' E 007°02'0 0.0
2018-Oct-19 04:03N 43°32' E 007°02'0 0.0
2018-Oct-19 04:00N 43°32' E 007°02'0 0.0
2018-Oct-19 03:24N 43°32' E 007°02'0 0.0
2018-Oct-19 03:03N 43°32' E 007°02'0 0.0
2018-Oct-19 03:00N 43°32' E 007°02'0 0.0
2018-Oct-19 02:30N 43°32' E 007°02'0 0.0
2018-Oct-19 02:03N 43°32' E 007°02'0 0.0
2018-Oct-19 01:57N 43°32' E 007°02'0 0.0
2018-Oct-19 01:30N 43°32' E 007°02'0 0.0
2018-Oct-19 01:03N 43°32' E 007°02'0 0.0
2018-Oct-19 01:00N 43°32' E 007°02'0 0.0
2018-Oct-19 00:27N 43°32' E 007°02'0 0.0
2018-Oct-19 00:03N 43°32' E 007°02'0 0.0
2018-Oct-18 23:57N 43°32' E 007°02'0 0.0
2018-Oct-18 23:30N 43°32' E 007°02'0 0.0
2018-Oct-18 23:03N 43°32' E 007°02'0 0.0
2018-Oct-18 23:00N 43°32' E 007°02'0 0.0
2018-Oct-18 22:30N 43°32' E 007°02'0 0.0
2018-Oct-18 22:03N 43°32' E 007°02'0 0.0
2018-Oct-18 22:00N 43°32' E 007°02'0 0.0
2018-Oct-18 21:27N 43°32' E 007°02'0 0.0
2018-Oct-18 21:00N 43°32' E 007°02'0 0.0
2018-Oct-18 20:30N 43°32' E 007°02'0 0.0
2018-Oct-18 20:03N 43°32' E 007°02'0 0.0
2018-Oct-18 20:00N 43°32' E 007°02'0 0.0
2018-Oct-18 19:30N 43°32' E 007°02'0 0.0
2018-Oct-18 19:03N 43°32' E 007°02'0 0.0
2018-Oct-18 19:00N 43°32' E 007°02'0 0.0
2018-Oct-18 18:30N 43°32' E 007°02'0 0.0
2018-Oct-18 18:03N 43°32' E 007°02'0 0.1
2018-Oct-18 18:00N 43°32' E 007°02'0 0.0
2018-Oct-18 17:30N 43°32' E 007°02'0 0.0
2018-Oct-18 17:03N 43°32' E 007°02'0 0.0
2018-Oct-18 17:00N 43°32' E 007°02'0 0.0
2018-Oct-18 16:30N 43°32' E 007°02'0 0.0
2018-Oct-18 16:03N 43°32' E 007°02'0 0.0
2018-Oct-18 16:00N 43°32' E 007°02'0 0.0
2018-Oct-18 15:30N 43°32' E 007°02'0 0.0
2018-Oct-18 15:03N 43°32' E 007°02'0 0.0
2018-Oct-18 15:00N 43°32' E 007°02'0 0.0
2018-Oct-18 14:30N 43°32' E 007°02'0 0.0
2018-Oct-18 14:00N 43°32' E 007°02'0 0.0
2018-Oct-18 13:30N 43°32' E 007°02'0 0.0
2018-Oct-18 13:03N 43°32' E 007°02'0 0.0
2018-Oct-18 12:55N 43°32' E 007°02'1 2.8
2018-Oct-18 12:30N 43°31' E 007°01'2 4.4
2018-Oct-18 12:03N 43°30' E 007°02'0 6.6
2018-Oct-18 12:01N 43°29' E 007°03'4 7.4
2018-Oct-18 11:31N 43°26' E 007°04'2 3.5
2018-Oct-18 11:04N 43°26' E 007°07'0 8.0
2018-Oct-18 11:01N 43°26' E 007°07'4 7.9
2018-Oct-18 10:31N 43°29' E 007°10'3 7.1
2018-Oct-18 10:04N 43°32' E 007°13'0 6.6
2018-Oct-18 10:01N 43°32' E 007°13'3 5.7
2018-Oct-18 09:31N 43°34' E 007°15'2 4.6
2018-Oct-18 09:04N 43°36' E 007°17'0 4.6
2018-Oct-18 09:01N 43°36' E 007°17'3 5.6
2018-Oct-18 08:30N 43°39' E 007°17'3 6.0
2018-Oct-18 08:03N 43°42' E 007°17'0 0.6
2018-Oct-18 08:01N 43°42' E 007°17'0 0.0
2018-Oct-18 07:28N 43°42' E 007°17'0 0.0
2018-Oct-18 07:01N 43°42' E 007°17'0 0.0
2018-Oct-18 06:59N 43°42' E 007°17'0 0.0
2018-Oct-18 06:28N 43°42' E 007°17'0 0.0
2018-Oct-18 06:01N 43°42' E 007°17'0 0.0
2018-Oct-18 05:58N 43°42' E 007°17'0 0.0
2018-Oct-18 05:28N 43°42' E 007°17'0 0.0
2018-Oct-18 05:01N 43°42' E 007°17'0 0.0
2018-Oct-18 04:58N 43°42' E 007°17'0 0.0
2018-Oct-18 04:28N 43°42' E 007°17'0 0.0
2018-Oct-18 04:01N 43°42' E 007°17'0 0.0
2018-Oct-18 03:58N 43°42' E 007°17'0 0.0
2018-Oct-18 03:28N 43°42' E 007°17'0 0.0
2018-Oct-18 03:01N 43°42' E 007°17'0 0.0
2018-Oct-18 02:58N 43°42' E 007°17'0 0.0
2018-Oct-18 02:28N 43°42' E 007°17'0 0.0
2018-Oct-18 02:01N 43°42' E 007°17'0 0.0
2018-Oct-18 01:58N 43°42' E 007°17'0 0.0
2018-Oct-18 01:28N 43°42' E 007°17'0 0.0
2018-Oct-18 01:01N 43°42' E 007°17'0 0.0
2018-Oct-18 00:58N 43°42' E 007°17'0 0.0
2018-Oct-18 00:28N 43°42' E 007°17'0 0.0
2018-Oct-18 00:01N 43°42' E 007°17'0 0.0
2018-Oct-17 23:55N 43°42' E 007°17'0 0.0
2018-Oct-17 23:25N 43°42' E 007°17'0 0.0
2018-Oct-17 23:01N 43°42' E 007°17'0 0.0
2018-Oct-17 22:58N 43°42' E 007°17'0 0.0
2018-Oct-17 22:28N 43°42' E 007°17'0 0.0
2018-Oct-17 22:01N 43°42' E 007°17'0 0.0
2018-Oct-17 21:58N 43°42' E 007°17'0 0.0
2018-Oct-17 21:28N 43°42' E 007°17'0 0.0
2018-Oct-17 21:01N 43°42' E 007°17'0 0.0
2018-Oct-17 20:58N 43°42' E 007°17'0 0.0
2018-Oct-17 20:28N 43°42' E 007°17'0 0.0
2018-Oct-17 20:01N 43°42' E 007°17'0 0.0
2018-Oct-17 19:55N 43°42' E 007°17'0 0.0
2018-Oct-17 19:28N 43°42' E 007°17'0 0.0
2018-Oct-17 19:01N 43°42' E 007°17'0 0.0
2018-Oct-17 18:58N 43°42' E 007°17'0 0.0
2018-Oct-17 18:28N 43°42' E 007°17'0 0.0
2018-Oct-17 18:01N 43°42' E 007°17'0 0.0
2018-Oct-17 17:58N 43°42' E 007°17'0 0.0
2018-Oct-17 17:25N 43°42' E 007°17'0 0.0
2018-Oct-17 17:03N 43°42' E 007°17'0 0.9
2018-Oct-17 17:00N 43°42' E 007°17'2 3.8
2018-Oct-17 16:31N 43°40' E 007°15'0 0.8
2018-Oct-17 16:03N 43°40' E 007°15'0 2.4
2018-Oct-17 16:00N 43°40' E 007°15'2 3.3
2018-Oct-17 15:30N 43°38' E 007°14'2 4.4
2018-Oct-17 15:04N 43°36' E 007°13'0 5.2
2018-Oct-17 15:01N 43°36' E 007°13'5 5.5
2018-Oct-17 14:01N 43°32' E 007°09'3 5.8
2018-Oct-17 13:30N 43°30' E 007°05'2 5.1
2018-Oct-17 13:04N 43°30' E 007°02'0 6.6
2018-Oct-17 13:01N 43°30' E 007°02'1 1.2
2018-Oct-17 12:30N 43°31' E 007°02'0 0.0
2018-Oct-17 12:00N 43°31' E 007°02'0 0.0
2018-Oct-17 11:27N 43°31' E 007°02'0 0.0
2018-Oct-17 11:03N 43°31' E 007°02'0 0.1
2018-Oct-17 11:00N 43°31' E 007°02'0 0.0
2018-Oct-17 10:27N 43°31' E 007°02'0 0.0
2018-Oct-17 10:03N 43°31' E 007°02'0 0.0
2018-Oct-17 09:57N 43°31' E 007°02'0 0.0
2018-Oct-17 09:27N 43°31' E 007°02'0 0.0
2018-Oct-17 09:00N 43°31' E 007°02'0 0.0
2018-Oct-17 08:27N 43°31' E 007°02'0 0.0
2018-Oct-17 07:57N 43°31' E 007°02'2 3.6
2018-Oct-17 07:30N 43°32' E 007°02'0 0.4
2018-Oct-17 07:01N 43°32' E 007°02'0 0.0
2018-Oct-17 06:58N 43°32' E 007°02'0 0.0
2018-Oct-17 06:22N 43°32' E 007°02'0 0.0
2018-Oct-17 05:55N 43°32' E 007°02'0 0.0
2018-Oct-17 05:25N 43°32' E 007°02'0 0.0
2018-Oct-17 04:55N 43°32' E 007°02'0 0.0
2018-Oct-17 04:25N 43°32' E 007°02'0 0.0
2018-Oct-17 03:58N 43°32' E 007°02'0 0.0
2018-Oct-17 03:28N 43°32' E 007°02'0 0.0
2018-Oct-17 02:58N 43°32' E 007°02'0 0.0
2018-Oct-17 02:25N 43°32' E 007°02'0 0.0
2018-Oct-17 01:58N 43°32' E 007°02'0 0.0
2018-Oct-17 01:28N 43°32' E 007°02'0 0.0
2018-Oct-17 00:58N 43°32' E 007°02'0 0.0
2018-Oct-17 00:28N 43°32' E 007°02'0 0.0
2018-Oct-16 23:58N 43°32' E 007°02'0 0.0
2018-Oct-16 23:28N 43°32' E 007°02'0 0.0
2018-Oct-16 23:01N 43°32' E 007°02'0 0.0
2018-Oct-16 22:58N 43°32' E 007°02'0 0.0
2018-Oct-16 22:16N 43°32' E 007°02'0 0.0
2018-Oct-16 22:01N 43°32' E 007°02'0 0.0
2018-Oct-16 21:58N 43°32' E 007°02'0 0.0
2018-Oct-16 21:28N 43°32' E 007°02'0 0.0
2018-Oct-16 21:01N 43°32' E 007°02'0 0.0
2018-Oct-16 20:58N 43°32' E 007°02'0 0.0
2018-Oct-16 20:28N 43°32' E 007°02'0 0.0
2018-Oct-16 20:01N 43°32' E 007°02'0 0.0
2018-Oct-16 19:49N 43°32' E 007°02'0 0.0
2018-Oct-16 19:22N 43°32' E 007°02'0 0.0
2018-Oct-16 19:01N 43°32' E 007°02'0 0.0
2018-Oct-16 18:49N 43°32' E 007°02'0 0.0
2018-Oct-16 18:28N 43°32' E 007°02'0 0.0
2018-Oct-16 18:01N 43°32' E 007°02'0 0.0
2018-Oct-16 17:49N 43°32' E 007°02'0 0.0
2018-Oct-16 17:28N 43°32' E 007°02'0 0.0
2018-Oct-16 17:01N 43°32' E 007°02'0 0.0
2018-Oct-16 16:52N 43°32' E 007°02'0 0.0
2018-Oct-16 16:22N 43°32' E 007°02'0 0.0
2018-Oct-16 16:01N 43°32' E 007°02'0 0.0
2018-Oct-16 15:52N 43°32' E 007°02'0 0.0
2018-Oct-16 15:22N 43°32' E 007°02'0 0.0
2018-Oct-16 14:52N 43°32' E 007°02'0 0.0
2018-Oct-16 14:25N 43°32' E 007°02'0 0.0
2018-Oct-16 13:55N 43°32' E 007°02'0 0.0
2018-Oct-16 13:28N 43°32' E 007°02'0 0.0
2018-Oct-16 12:55N 43°32' E 007°02'0 0.0
2018-Oct-16 12:28N 43°32' E 007°02'0 0.0
2018-Oct-16 11:58N 43°32' E 007°02'0 0.0
2018-Oct-16 11:28N 43°32' E 007°02'0 0.0
2018-Oct-16 10:58N 43°32' E 007°02'0 0.0
2018-Oct-16 10:28N 43°32' E 007°02'0 0.0
2018-Oct-16 10:01N 43°32' E 007°02'0 0.0
2018-Oct-16 09:58N 43°32' E 007°02'0 0.0
2018-Oct-16 09:28N 43°32' E 007°02'0 0.0
2018-Oct-16 09:01N 43°32' E 007°02'0 0.0
2018-Oct-16 08:58N 43°32' E 007°02'0 0.0
2018-Oct-16 08:28N 43°32' E 007°02'0 0.0
2018-Oct-16 08:01N 43°32' E 007°02'0 0.0
2018-Oct-16 07:58N 43°32' E 007°02'0 0.0
2018-Oct-16 07:28N 43°32' E 007°02'0 0.0
2018-Oct-16 07:01N 43°32' E 007°02'0 0.0
2018-Oct-16 06:58N 43°32' E 007°02'0 0.0
2018-Oct-16 06:28N 43°32' E 007°02'0 0.0
2018-Oct-16 06:01N 43°32' E 007°02'0 0.0
2018-Oct-16 05:58N 43°32' E 007°02'0 0.0
2018-Oct-16 05:28N 43°32' E 007°02'0 0.0
2018-Oct-16 05:01N 43°32' E 007°02'0 0.0
2018-Oct-16 04:49N 43°32' E 007°02'0 0.0
2018-Oct-16 04:25N 43°32' E 007°02'0 0.0
2018-Oct-16 04:01N 43°32' E 007°02'0 0.0
2018-Oct-16 03:58N 43°32' E 007°02'0 0.0
2018-Oct-16 03:28N 43°32' E 007°02'0 0.0
2018-Oct-16 03:01N 43°32' E 007°02'0 0.0
2018-Oct-16 02:52N 43°32' E 007°02'0 0.0
2018-Oct-16 02:28N 43°32' E 007°02'0 0.0
2018-Oct-16 02:01N 43°32' E 007°02'0 0.0
2018-Oct-16 01:52N 43°32' E 007°02'0 0.0
2018-Oct-16 01:25N 43°32' E 007°02'0 0.0
2018-Oct-16 00:52N 43°32' E 007°02'0 0.0
2018-Oct-16 00:25N 43°32' E 007°02'0 0.0
2018-Oct-15 23:58N 43°32' E 007°02'0 0.0
2018-Oct-15 23:28N 43°32' E 007°02'0 0.0
2018-Oct-15 23:01N 43°32' E 007°02'0 0.0
2018-Oct-15 22:49N 43°32' E 007°02'0 0.0
2018-Oct-15 22:28N 43°32' E 007°02'0 0.0
2018-Oct-15 21:52N 43°32' E 007°02'0 0.0
2018-Oct-15 21:28N 43°32' E 007°02'0 0.0
2018-Oct-15 20:58N 43°32' E 007°02'0 0.0
2018-Oct-15 20:28N 43°32' E 007°02'0 0.0
2018-Oct-15 19:58N 43°32' E 007°02'0 0.0
2018-Oct-15 19:28N 43°32' E 007°02'0 0.0
2018-Oct-15 19:01N 43°32' E 007°02'0 0.0
2018-Oct-15 18:55N 43°32' E 007°02'0 0.0
2018-Oct-15 18:28N 43°32' E 007°02'0 0.0
2018-Oct-15 18:01N 43°32' E 007°02'0 0.0
2018-Oct-15 17:58N 43°32' E 007°02'0 0.0
2018-Oct-15 17:28N 43°32' E 007°02'0 0.0
2018-Oct-15 17:03N 43°32' E 007°02'0 0.1
2018-Oct-15 17:00N 43°32' E 007°02'2 3.1
2018-Oct-15 16:30N 43°31' E 007°01'0 0.8
2018-Oct-15 16:03N 43°31' E 007°01'0 0.9
2018-Oct-15 16:00N 43°31' E 007°02'1 2.8
2018-Oct-15 15:31N 43°29' E 007°02'3 6.2
2018-Oct-15 15:03N 43°27' E 006°60'0 6.7
2018-Oct-15 15:01N 43°27' E 006°59'3 6.1
2018-Oct-15 14:28N 43°24' E 006°57'3 5.6
2018-Oct-15 14:00N 43°22' E 006°55'69 3.2
2018-Oct-14 16:29N 43°18' E 005°21'1 0.2
2018-Oct-14 13:01N 43°18' E 005°22'0 1.3
2018-Oct-14 12:55N 43°18' E 005°21'1 0.2
2018-Oct-14 09:07N 43°18' E 005°20'0 5.3
2018-Oct-14 09:03N 43°18' E 005°21'0 5.0
2018-Oct-14 09:00N 43°18' E 005°21'1 0.0
2018-Oct-12 13:57N 43°18' E 005°22'27 3.7
2018-Oct-12 06:49N 43°06' E 005°55'1 3.7
2018-Oct-12 06:29N 43°06' E 005°53'0 0.0
2018-Oct-12 06:02N 43°06' E 005°53'0 0.0
2018-Oct-12 05:59N 43°06' E 005°53'0 0.0
2018-Oct-12 05:29N 43°06' E 005°53'0 0.0
2018-Oct-12 05:02N 43°06' E 005°53'0 0.1
2018-Oct-12 04:59N 43°06' E 005°53'0 0.0
2018-Oct-12 04:29N 43°06' E 005°53'0 0.0
2018-Oct-12 04:02N 43°06' E 005°53'0 0.0
2018-Oct-12 03:59N 43°06' E 005°53'0 0.0
2018-Oct-12 03:29N 43°06' E 005°53'0 0.0
2018-Oct-12 03:02N 43°06' E 005°53'0 0.1
2018-Oct-12 02:59N 43°06' E 005°53'0 0.0
2018-Oct-12 02:29N 43°06' E 005°53'0 0.0
2018-Oct-12 02:02N 43°06' E 005°53'0 0.0
2018-Oct-12 01:59N 43°06' E 005°53'0 0.0
2018-Oct-12 01:29N 43°06' E 005°53'0 0.0
2018-Oct-12 01:02N 43°06' E 005°53'0 0.0
2018-Oct-12 00:59N 43°06' E 005°53'0 0.0
2018-Oct-12 00:26N 43°06' E 005°53'0 0.0
2018-Oct-12 00:02N 43°06' E 005°53'0 0.0
2018-Oct-11 23:59N 43°06' E 005°53'0 0.0
2018-Oct-11 23:29N 43°06' E 005°53'0 0.0
2018-Oct-11 23:02N 43°06' E 005°53'0 0.0
2018-Oct-11 22:59N 43°06' E 005°53'0 0.0
2018-Oct-11 22:29N 43°06' E 005°53'0 0.0
2018-Oct-11 22:02N 43°06' E 005°53'0 0.0
2018-Oct-11 21:59N 43°06' E 005°53'0 0.0
2018-Oct-11 21:29N 43°06' E 005°53'0 0.0
2018-Oct-11 21:02N 43°06' E 005°53'0 0.0
2018-Oct-11 20:59N 43°06' E 005°53'0 0.0
2018-Oct-11 20:29N 43°06' E 005°53'0 0.0
2018-Oct-11 20:02N 43°06' E 005°53'0 0.0
2018-Oct-11 19:59N 43°06' E 005°53'0 0.0
2018-Oct-11 19:29N 43°06' E 005°53'0 0.0
2018-Oct-11 19:02N 43°06' E 005°53'0 0.0
2018-Oct-11 18:59N 43°06' E 005°53'0 0.0
2018-Oct-11 18:29N 43°06' E 005°53'0 0.0
2018-Oct-11 18:02N 43°06' E 005°53'0 0.0
2018-Oct-11 17:59N 43°06' E 005°53'0 0.0
2018-Oct-11 17:29N 43°06' E 005°53'0 0.0
2018-Oct-11 17:02N 43°06' E 005°53'0 0.0
2018-Oct-11 16:59N 43°06' E 005°53'0 0.0
2018-Oct-11 16:26N 43°06' E 005°53'0 0.0
2018-Oct-11 16:02N 43°06' E 005°53'0 0.0
2018-Oct-11 15:59N 43°06' E 005°53'0 0.0
2018-Oct-11 15:29N 43°06' E 005°53'0 0.0
2018-Oct-11 15:02N 43°06' E 005°53'0 0.0
2018-Oct-11 14:59N 43°06' E 005°53'0 0.0
2018-Oct-11 14:29N 43°06' E 005°53'0 0.0
2018-Oct-11 13:29N 43°06' E 005°53'0 0.0
2018-Oct-11 13:02N 43°06' E 005°53'0 0.0
2018-Oct-11 12:59N 43°06' E 005°53'0 0.0
2018-Oct-11 12:29N 43°06' E 005°53'0 0.0
2018-Oct-11 12:02N 43°06' E 005°53'0 0.0
2018-Oct-11 11:59N 43°06' E 005°53'0 0.0
2018-Oct-11 11:29N 43°06' E 005°53'0 0.0
2018-Oct-11 11:02N 43°06' E 005°53'0 0.0
2018-Oct-11 10:59N 43°06' E 005°53'0 0.0
2018-Oct-11 10:29N 43°06' E 005°53'0 0.0
2018-Oct-11 10:02N 43°06' E 005°53'0 0.0
2018-Oct-11 09:59N 43°06' E 005°53'0 0.0
2018-Oct-11 09:29N 43°06' E 005°53'0 0.0
2018-Oct-11 09:02N 43°06' E 005°53'0 0.0
2018-Oct-11 08:59N 43°06' E 005°53'0 0.0
2018-Oct-11 08:29N 43°06' E 005°53'0 0.0
2018-Oct-11 08:02N 43°06' E 005°53'0 0.0
2018-Oct-11 07:59N 43°06' E 005°53'0 0.0
2018-Oct-11 07:29N 43°06' E 005°53'0 0.0
2018-Oct-11 07:02N 43°06' E 005°53'0 0.0
2018-Oct-11 06:59N 43°06' E 005°53'0 0.0
2018-Oct-11 06:29N 43°06' E 005°53'0 0.0
2018-Oct-11 06:02N 43°06' E 005°53'0 0.0
2018-Oct-11 05:59N 43°06' E 005°53'0 0.0
2018-Oct-11 05:29N 43°06' E 005°53'0 0.0
2018-Oct-11 05:02N 43°06' E 005°53'0 0.0
2018-Oct-11 04:59N 43°06' E 005°53'0 0.0
2018-Oct-11 04:29N 43°06' E 005°53'0 0.0
2018-Oct-11 04:02N 43°06' E 005°53'0 0.0
2018-Oct-11 03:59N 43°06' E 005°53'0 0.0
2018-Oct-11 03:29N 43°06' E 005°53'0 0.0
2018-Oct-11 03:02N 43°06' E 005°53'0 0.1
2018-Oct-11 02:59N 43°06' E 005°53'0 0.0
2018-Oct-11 02:29N 43°06' E 005°53'0 0.0
2018-Oct-11 02:02N 43°06' E 005°53'0 0.0
2018-Oct-11 01:59N 43°06' E 005°53'0 0.0
2018-Oct-11 01:29N 43°06' E 005°53'0 0.0
2018-Oct-11 01:02N 43°06' E 005°53'0 0.0
2018-Oct-11 00:59N 43°06' E 005°53'0 0.0
2018-Oct-11 00:29N 43°06' E 005°53'0 0.0
2018-Oct-11 00:02N 43°06' E 005°53'0 0.0
2018-Oct-10 23:59N 43°06' E 005°53'0 0.0
2018-Oct-10 23:29N 43°06' E 005°53'0 0.0
2018-Oct-10 23:02N 43°06' E 005°53'0 0.0
2018-Oct-10 22:59N 43°06' E 005°53'0 0.0
2018-Oct-10 22:29N 43°06' E 005°53'0 0.0
2018-Oct-10 22:02N 43°06' E 005°53'0 0.0
2018-Oct-10 21:59N 43°06' E 005°53'0 0.0
2018-Oct-10 21:29N 43°06' E 005°53'0 0.0
2018-Oct-10 21:02N 43°06' E 005°53'0 0.0
2018-Oct-10 20:59N 43°06' E 005°53'0 0.0
2018-Oct-10 20:29N 43°06' E 005°53'0 0.0
2018-Oct-10 20:02N 43°06' E 005°53'0 0.0
2018-Oct-10 19:59N 43°06' E 005°53'0 0.0
2018-Oct-10 19:29N 43°06' E 005°53'0 0.0
2018-Oct-10 19:02N 43°06' E 005°53'0 0.0
2018-Oct-10 18:59N 43°06' E 005°53'0 0.0
2018-Oct-10 18:29N 43°06' E 005°53'0 0.0
2018-Oct-10 18:02N 43°06' E 005°53'0 0.0
2018-Oct-10 17:59N 43°06' E 005°53'0 0.0
2018-Oct-10 17:29N 43°06' E 005°53'0 0.0
2018-Oct-10 17:02N 43°06' E 005°53'0 0.0
2018-Oct-10 16:59N 43°06' E 005°53'0 0.0
2018-Oct-10 16:29N 43°06' E 005°53'0 0.0
2018-Oct-10 16:02N 43°06' E 005°53'0 0.1
2018-Oct-10 15:59N 43°06' E 005°53'0 0.0
2018-Oct-10 15:29N 43°06' E 005°53'0 0.0
2018-Oct-10 15:02N 43°06' E 005°53'0 0.0
2018-Oct-10 14:59N 43°06' E 005°53'0 0.0
2018-Oct-10 14:29N 43°06' E 005°53'0 0.0
2018-Oct-10 13:59N 43°06' E 005°53'0 0.0
2018-Oct-10 13:29N 43°06' E 005°53'0 0.0
2018-Oct-10 13:02N 43°06' E 005°53'0 0.0
2018-Oct-10 12:59N 43°06' E 005°53'0 0.0
2018-Oct-10 12:29N 43°06' E 005°53'  

Dump ship's entire track history